createdAt,value
2019-02-28T00:01:57.324Z,75.93
2019-02-28T00:04:37.576Z,74.67
2019-02-28T00:07:08.002Z,72.60
2019-02-28T00:09:36.743Z,78.67
2019-02-28T00:12:13.657Z,72.77
2019-02-28T00:14:41.429Z,79.23
2019-02-28T00:17:15.837Z,79.43
2019-02-28T00:19:44.365Z,81.60
2019-02-28T00:22:14.672Z,90.30
2019-02-28T00:24:43.512Z,82.03
2019-02-28T00:27:21.929Z,77.47
2019-02-28T00:29:51.459Z,80.47
2019-02-28T00:32:21.435Z,73.53
2019-02-28T00:34:50.565Z,75.63
2019-02-28T00:37:19.723Z,74.00
2019-02-28T00:39:48.471Z,81.83
2019-02-28T00:42:17.844Z,82.77
2019-02-28T00:44:51.528Z,92.70
2019-02-28T00:47:20.887Z,87.47
2019-02-28T00:49:49.551Z,87.83
2019-02-28T00:52:18.104Z,84.73
2019-02-28T00:54:46.749Z,88.67
2019-02-28T00:57:15.473Z,89.23
2019-02-28T00:59:44.165Z,80.43
2019-02-28T01:02:12.604Z,88.90
2019-02-28T01:04:49.320Z,92.37
2019-02-28T01:07:17.987Z,89.00
2019-02-28T01:09:46.994Z,89.50
2019-02-28T01:12:21.124Z,88.47
2019-02-28T01:14:49.724Z,93.13
2019-02-28T01:17:18.486Z,90.77
2019-02-28T01:19:46.949Z,88.97
2019-02-28T01:22:15.612Z,91.57
2019-02-28T01:24:44.343Z,89.17
2019-02-28T01:27:13.077Z,108.37
2019-02-28T01:29:44.880Z,95.87
2019-02-28T01:32:15.772Z,99.40
2019-02-28T01:34:43.945Z,98.43
2019-02-28T01:37:12.882Z,101.30
2019-02-28T01:39:41.375Z,106.33
2019-02-28T01:42:09.826Z,100.57
2019-02-28T01:44:38.451Z,94.43
2019-02-28T01:47:07.067Z,108.63
2019-02-28T01:49:39.165Z,99.63
2019-02-28T01:52:10.187Z,100.37
2019-02-28T01:54:37.956Z,101.07
2019-02-28T01:57:08.911Z,102.97
2019-02-28T01:59:49.164Z,106.27
2019-02-28T02:02:17.682Z,110.17
2019-02-28T02:04:46.687Z,107.50
2019-02-28T02:07:15.436Z,106.07
2019-02-28T02:09:47.106Z,108.70
2019-02-28T02:12:15.964Z,108.07
2019-02-28T02:14:47.533Z,103.40
2019-02-28T02:17:16.194Z,107.30
2019-02-28T02:19:44.805Z,108.63
2019-02-28T02:22:13.425Z,108.80
2019-02-28T02:24:42.302Z,115.27
2019-02-28T02:27:10.963Z,114.00
2019-02-28T02:29:39.609Z,117.20
2019-02-28T02:32:08.449Z,116.20
2019-02-28T02:34:37.050Z,120.13
2019-02-28T02:37:06.067Z,116.30
2019-02-28T02:39:34.982Z,113.13
2019-02-28T02:42:09.820Z,115.07
2019-02-28T02:44:33.935Z,117.67
2019-02-28T02:47:02.735Z,119.27
2019-02-28T02:49:31.337Z,123.10
2019-02-28T02:52:00.261Z,124.97
2019-02-28T02:54:28.950Z,111.63
2019-02-28T02:56:57.894Z,122.17
2019-02-28T02:59:26.426Z,123.67
2019-02-28T03:01:56.222Z,130.13
2019-02-28T03:04:25.401Z,129.77
2019-02-28T03:06:55.672Z,124.33
2019-02-28T03:09:24.276Z,131.80
2019-02-28T03:11:52.960Z,123.00
2019-02-28T03:14:21.582Z,132.77
2019-02-28T03:16:51.631Z,127.53
2019-02-28T03:19:20.288Z,128.37
2019-02-28T03:21:52.667Z,128.53
2019-02-28T03:24:19.142Z,133.20
2019-02-28T03:26:47.633Z,126.43
2019-02-28T03:29:16.212Z,124.90
2019-02-28T03:31:55.384Z,132.93
2019-02-28T03:34:16.622Z,130.53
2019-02-28T03:36:55.290Z,144.77
2019-02-28T03:39:15.655Z,129.80
2019-02-28T03:41:44.425Z,131.43
2019-02-28T03:44:19.707Z,126.13
2019-02-28T03:46:46.705Z,128.03
2019-02-28T03:49:13.552Z,139.33
2019-02-28T03:51:42.655Z,124.83
2019-02-28T03:54:11.231Z,129.30
2019-02-28T03:56:42.541Z,132.27
2019-02-28T03:59:18.181Z,130.00
2019-02-28T04:01:45.372Z,129.73
2019-02-28T04:04:12.513Z,136.57
2019-02-28T04:06:42.597Z,135.10
2019-02-28T04:09:11.173Z,137.57
2019-02-28T04:11:40.448Z,144.30
2019-02-28T04:14:18.417Z,134.93
2019-02-28T04:16:52.520Z,135.93
2019-02-28T04:19:21.485Z,125.20
2019-02-28T04:21:48.282Z,124.03
2019-02-28T04:24:17.103Z,123.63
2019-02-28T04:26:45.555Z,122.57
2019-02-28T04:29:14.191Z,129.97
2019-02-28T04:31:42.766Z,141.07
2019-02-28T04:34:13.485Z,134.63
2019-02-28T04:36:41.975Z,140.00
2019-02-28T04:39:10.842Z,145.20
2019-02-28T04:41:42.675Z,140.77
2019-02-28T04:44:11.408Z,142.13
2019-02-28T04:46:40.030Z,127.77
2019-02-28T04:49:08.652Z,153.17
2019-02-28T04:51:40.211Z,142.20
2019-02-28T04:54:07.555Z,140.67
2019-02-28T04:56:36.298Z,135.97
2019-02-28T04:59:04.955Z,135.53
2019-02-28T05:01:33.704Z,160.90
2019-02-28T05:04:02.994Z,156.53
2019-02-28T05:06:31.773Z,138.90
2019-02-28T05:09:00.530Z,150.80
2019-02-28T05:11:30.681Z,151.63
2019-02-28T05:13:59.426Z,151.17
2019-02-28T05:16:28.254Z,153.43
2019-02-28T05:18:58.202Z,152.13
2019-02-28T05:21:26.960Z,160.97
2019-02-28T05:24:01.829Z,172.63
2019-02-28T05:26:31.333Z,171.07
2019-02-28T05:28:59.818Z,177.00
2019-02-28T05:31:29.119Z,171.73
2019-02-28T05:33:57.888Z,159.47
2019-02-28T05:36:26.880Z,172.07
2019-02-28T05:38:56.580Z,178.30
2019-02-28T05:41:26.189Z,173.07
2019-02-28T05:43:54.812Z,158.93
2019-02-28T05:46:25.097Z,173.77
2019-02-28T05:48:53.779Z,159.73
2019-02-28T05:51:24.849Z,161.17
2019-02-28T05:53:52.707Z,172.23
2019-02-28T05:56:21.577Z,164.47
2019-02-28T05:58:52.464Z,190.03
2019-02-28T06:01:22.064Z,165.70
2019-02-28T06:03:51.823Z,178.10
2019-02-28T06:06:20.969Z,173.87
2019-02-28T06:08:49.740Z,168.37
2019-02-28T06:11:18.578Z,165.33
2019-02-28T06:13:49.706Z,153.07
2019-02-28T06:16:17.461Z,156.13
2019-02-28T06:18:46.205Z,148.90
2019-02-28T06:21:17.624Z,165.50
2019-02-28T06:23:46.416Z,173.63
2019-02-28T06:26:15.404Z,166.73
2019-02-28T06:28:43.980Z,143.13
2019-02-28T06:31:17.033Z,158.30
2019-02-28T06:33:46.218Z,161.90
2019-02-28T06:36:17.969Z,154.13
2019-02-28T06:38:46.857Z,153.73
2019-02-28T06:41:15.859Z,155.20
2019-02-28T06:43:46.276Z,171.70
2019-02-28T06:46:15.026Z,162.47
2019-02-28T06:48:47.229Z,163.57
2019-02-28T06:51:16.751Z,168.20
2019-02-28T06:53:46.039Z,171.43
2019-02-28T06:56:16.360Z,189.57
2019-02-28T06:58:45.432Z,184.70
2019-02-28T07:01:14.059Z,190.37
2019-02-28T07:03:43.344Z,188.83
2019-02-28T07:06:12.616Z,188.80
2019-02-28T07:08:43.426Z,193.60
2019-02-28T07:11:12.763Z,196.27
2019-02-28T07:13:43.020Z,203.53
2019-02-28T07:16:11.520Z,194.00
2019-02-28T07:18:41.178Z,210.87
2019-02-28T07:21:10.719Z,212.73
2019-02-28T07:23:40.129Z,223.23
2019-02-28T07:26:12.068Z,203.70
2019-02-28T07:28:41.184Z,208.83
2019-02-28T07:31:10.302Z,218.53
2019-02-28T07:33:41.344Z,214.80
2019-02-28T07:36:10.666Z,200.80
2019-02-28T07:38:39.329Z,212.03
2019-02-28T07:41:20.298Z,218.90
2019-02-28T07:43:49.002Z,214.10
2019-02-28T07:46:17.782Z,222.00
2019-02-28T07:48:46.420Z,222.03
2019-02-28T07:51:15.043Z,211.90
2019-02-28T07:53:43.741Z,217.53
2019-02-28T07:56:12.695Z,235.00
2019-02-28T07:58:41.419Z,226.37
2019-02-28T08:01:10.687Z,214.83
2019-02-28T08:03:39.408Z,224.77
2019-02-28T08:06:08.158Z,202.93
2019-02-28T08:08:37.516Z,225.97
2019-02-28T08:11:07.098Z,216.27
2019-02-28T08:13:38.668Z,214.50
2019-02-28T08:16:07.475Z,226.03
2019-02-28T08:18:39.779Z,208.03
2019-02-28T08:21:11.588Z,210.10
2019-02-28T08:23:45.819Z,209.47
2019-02-28T08:26:15.532Z,216.87
2019-02-28T08:28:48.345Z,203.13
2019-02-28T08:31:19.234Z,234.63
2019-02-28T08:33:49.275Z,200.20
2019-02-28T08:36:18.395Z,211.63
2019-02-28T08:38:47.576Z,213.47
2019-02-28T08:41:16.339Z,201.43
2019-02-28T08:43:47.871Z,209.80
2019-02-28T08:46:16.165Z,204.53
2019-02-28T08:48:49.922Z,201.30
2019-02-28T08:51:18.786Z,197.57
2019-02-28T08:53:51.374Z,201.90
2019-02-28T08:56:22.158Z,203.43
2019-02-28T08:58:52.281Z,206.07
2019-02-28T09:01:21.868Z,194.00
2019-02-28T09:03:50.785Z,194.93
2019-02-28T09:06:20.135Z,202.33
2019-02-28T09:08:51.534Z,200.23
2019-02-28T09:11:21.087Z,188.50
2019-02-28T09:13:57.063Z,199.67
2019-02-28T09:16:25.941Z,196.13
2019-02-28T09:18:57.475Z,192.47
2019-02-28T09:21:27.497Z,179.60
2019-02-28T09:23:56.938Z,193.57
2019-02-28T09:26:28.196Z,188.53
2019-02-28T09:28:56.197Z,185.10
2019-02-28T09:31:25.018Z,174.93
2019-02-28T09:33:58.889Z,187.23
2019-02-28T09:36:29.626Z,185.37
2019-02-28T09:38:59.689Z,192.53
2019-02-28T09:41:31.119Z,188.17
2019-02-28T09:44:00.687Z,180.13
2019-02-28T09:46:29.359Z,183.20
2019-02-28T09:48:59.936Z,184.80
2019-02-28T09:51:31.711Z,188.83
2019-02-28T09:53:59.425Z,180.23
2019-02-28T09:56:29.195Z,175.73
2019-02-28T09:59:00.263Z,171.57
2019-02-28T10:01:29.080Z,172.60
2019-02-28T10:03:58.285Z,169.30
2019-02-28T10:06:27.698Z,179.27
2019-02-28T10:08:58.367Z,167.73
2019-02-28T10:11:31.755Z,166.47
2019-02-28T10:14:00.814Z,154.60
2019-02-28T10:16:31.410Z,166.37
2019-02-28T10:19:00.675Z,160.73
2019-02-28T10:21:29.928Z,153.43
2019-02-28T10:24:03.704Z,159.80
2019-02-28T10:26:32.144Z,147.33
2019-02-28T10:29:43.469Z,134.63
2019-02-28T10:38:40.857Z,123.63
2019-02-28T10:41:11.312Z,110.53
2019-02-28T10:47:28.164Z,99.93
2019-02-28T10:59:36.468Z,79.37
2019-02-28T11:02:05.063Z,82.83
2019-02-28T11:04:33.733Z,92.63
2019-02-28T11:07:03.114Z,92.67
2019-02-28T11:09:32.508Z,105.27
2019-02-28T11:12:01.336Z,107.90
2019-02-28T11:14:30.254Z,122.70
2019-02-28T11:17:00.285Z,114.30
2019-02-28T11:19:29.111Z,117.23
2019-02-28T11:21:57.952Z,127.23
2019-02-28T11:24:27.185Z,123.33
2019-02-28T11:26:56.203Z,125.60
2019-02-28T11:29:25.079Z,137.77
2019-02-28T11:31:54.328Z,138.57
2019-02-28T11:34:23.662Z,134.30
2019-02-28T11:36:52.541Z,138.37
2019-02-28T11:39:21.613Z,140.83
2019-02-28T11:41:53.534Z,137.67
2019-02-28T11:44:21.764Z,129.93
2019-02-28T11:46:53.682Z,118.27
2019-02-28T11:49:22.604Z,125.73
2019-02-28T11:51:53.096Z,117.00
2019-02-28T11:54:26.302Z,122.53
2019-02-28T11:56:55.187Z,126.17
2019-02-28T11:59:24.501Z,126.50
2019-02-28T12:01:54.003Z,132.73
2019-02-28T12:04:23.271Z,140.23
2019-02-28T12:06:52.655Z,127.83
2019-02-28T12:09:21.239Z,129.93
2019-02-28T12:11:50.060Z,119.67
2019-02-28T12:14:19.082Z,109.20
2019-02-28T12:16:52.648Z,91.57
2019-02-28T12:19:17.999Z,88.43
2019-02-28T12:21:46.610Z,92.70
2019-02-28T12:24:15.244Z,76.83
2019-02-28T12:26:43.753Z,85.97
2019-02-28T12:29:13.026Z,77.33
2019-02-28T12:31:42.377Z,66.53
2019-02-28T12:34:10.890Z,69.97
2019-02-28T12:36:39.453Z,69.53
2019-02-28T12:39:08.173Z,68.00
2019-02-28T12:41:36.978Z,65.97
2019-02-28T12:44:05.504Z,63.07
2019-02-28T12:46:34.201Z,59.03
2019-02-28T12:49:02.701Z,48.73
2019-02-28T12:51:32.613Z,50.90
2019-02-28T12:54:04.474Z,44.83
2019-02-28T12:56:32.996Z,50.50
2019-02-28T12:59:01.599Z,46.43
2019-02-28T13:01:33.182Z,42.87
2019-02-28T13:04:00.728Z,39.27
2019-02-28T13:06:29.264Z,42.10
2019-02-28T13:08:57.747Z,41.53
2019-02-28T13:11:29.135Z,34.53
2019-02-28T13:14:00.029Z,31.50
2019-02-28T13:16:27.726Z,31.17
2019-02-28T13:18:56.498Z,25.13
2019-02-28T13:21:25.248Z,21.60
2019-02-28T13:23:53.639Z,29.53
2019-02-28T13:26:30.494Z,25.47
2019-02-28T13:29:00.144Z,25.67
2019-02-28T13:31:28.892Z,25.47
2019-02-28T13:33:57.625Z,25.20
2019-02-28T13:36:26.505Z,24.47
2019-02-28T13:38:55.903Z,22.67
2019-02-28T13:41:27.457Z,27.40
2019-02-28T13:43:59.267Z,32.60
2019-02-28T13:46:32.586Z,33.10
2019-02-28T13:48:57.462Z,29.80
2019-02-28T13:51:28.595Z,29.00
2019-02-28T13:53:57.309Z,34.97
2019-02-28T13:56:28.984Z,35.13
2019-02-28T13:58:57.285Z,33.50
2019-02-28T14:01:26.406Z,32.60
2019-02-28T14:03:55.040Z,38.33
2019-02-28T14:06:23.562Z,25.30
2019-02-28T14:08:52.859Z,35.60
2019-02-28T14:11:21.554Z,34.53
2019-02-28T14:13:50.262Z,40.10
2019-02-28T14:16:18.991Z,39.60
2019-02-28T14:18:47.613Z,31.47
2019-02-28T14:21:17.148Z,24.00
2019-02-28T14:23:48.182Z,31.57
2019-02-28T14:26:16.987Z,27.93
2019-02-28T14:28:46.322Z,33.07
2019-02-28T14:31:15.726Z,30.67
2019-02-28T14:33:48.254Z,23.60
2019-02-28T14:36:29.210Z,22.10
2019-02-28T14:39:04.667Z,26.53
2019-02-28T14:41:35.205Z,23.20
2019-02-28T14:44:05.357Z,27.37
2019-02-28T14:46:34.742Z,28.13
2019-02-28T14:49:12.495Z,28.63
2019-02-28T14:51:41.139Z,26.47
2019-02-28T14:54:09.994Z,27.43
2019-02-28T14:56:43.165Z,19.43
2019-02-28T14:59:11.947Z,25.80
2019-02-28T15:01:40.866Z,23.47
2019-02-28T15:04:09.514Z,26.53
2019-02-28T15:06:38.013Z,24.07
2019-02-28T15:09:12.453Z,33.43
2019-02-28T15:11:43.695Z,26.07
2019-02-28T15:14:11.602Z,24.20
2019-02-28T15:16:40.113Z,23.47
2019-02-28T15:19:09.809Z,36.40
2019-02-28T15:21:42.240Z,27.13
2019-02-28T15:24:09.767Z,19.03
2019-02-28T15:26:41.720Z,26.17
2019-02-28T15:29:20.183Z,26.33
2019-02-28T15:32:31.229Z,24.60
2019-02-28T15:35:12.438Z,27.33
2019-02-28T15:37:41.176Z,25.97
2019-02-28T15:40:10.765Z,29.23
2019-02-28T15:42:42.894Z,30.73
2019-02-28T15:45:10.623Z,41.23
2019-02-28T15:47:40.902Z,24.00
2019-02-28T15:50:13.575Z,27.80
2019-02-28T15:52:42.975Z,30.20
2019-02-28T15:55:11.794Z,27.07
2019-02-28T15:57:42.468Z,31.60
2019-02-28T16:00:15.574Z,34.57
2019-02-28T16:02:44.439Z,24.13
2019-02-28T16:05:14.766Z,27.10
2019-02-28T16:07:53.452Z,27.63
2019-02-28T16:10:35.549Z,28.03
2019-02-28T16:13:07.130Z,26.57
2019-02-28T16:15:39.250Z,34.03
2019-02-28T16:18:12.079Z,28.27
2019-02-28T16:20:46.711Z,34.57
2019-02-28T16:23:15.550Z,28.90
2019-02-28T16:25:46.906Z,28.90
2019-02-28T16:28:17.008Z,32.77
2019-02-28T16:30:45.908Z,30.00
2019-02-28T16:33:15.065Z,29.40
2019-02-28T16:35:46.696Z,21.87
2019-02-28T16:38:17.651Z,24.93
2019-02-28T16:40:57.683Z,29.03
2019-02-28T16:43:28.290Z,30.00
2019-02-28T16:46:01.883Z,33.37
2019-02-28T16:48:33.467Z,27.73
2019-02-28T16:51:06.866Z,33.40
2019-02-28T16:53:41.132Z,32.27
2019-02-28T16:56:15.860Z,27.00
2019-02-28T16:58:46.124Z,24.83
2019-02-28T17:01:17.543Z,30.03
2019-02-28T17:03:45.857Z,28.63
2019-02-28T17:06:15.057Z,30.33
2019-02-28T17:08:54.521Z,27.90
2019-02-28T17:11:30.791Z,25.87
2019-02-28T17:14:13.820Z,33.60
2019-02-28T17:17:01.351Z,25.17
2019-02-28T17:19:31.675Z,27.57
2019-02-28T17:22:03.557Z,22.17
2019-02-28T17:24:35.666Z,21.93
2019-02-28T17:27:31.489Z,29.87
2019-02-28T17:30:26.336Z,24.77
2019-02-28T17:32:57.256Z,18.60
2019-02-28T17:35:26.195Z,21.17
2019-02-28T17:37:59.895Z,20.10
2019-02-28T17:40:32.157Z,21.10
2019-02-28T17:43:03.813Z,17.03
2019-02-28T17:45:41.202Z,14.83
2019-02-28T17:48:31.994Z,18.00
2019-02-28T17:51:25.923Z,12.10
2019-02-28T17:54:20.843Z,14.67
2019-02-28T17:57:22.379Z,19.37
2019-02-28T18:00:16.083Z,18.83
2019-02-28T18:02:58.195Z,29.03
2019-02-28T18:05:54.545Z,26.67
2019-02-28T18:08:31.837Z,20.23
2019-02-28T18:11:23.316Z,22.90
2019-02-28T18:14:33.958Z,26.87
2019-02-28T18:17:33.405Z,27.70
2019-02-28T18:20:20.255Z,23.00
2019-02-28T18:23:12.771Z,17.67
2019-02-28T18:26:06.202Z,22.97
2019-02-28T18:28:46.617Z,26.17
2019-02-28T18:31:34.714Z,25.50
2019-02-28T18:34:20.656Z,28.73
2019-02-28T18:37:24.537Z,27.87
2019-02-28T18:40:04.071Z,34.83
2019-02-28T18:42:34.481Z,63.40
2019-02-28T18:45:32.308Z,30.27
2019-02-28T18:48:17.486Z,27.97
2019-02-28T18:51:02.321Z,37.47
2019-02-28T18:53:38.241Z,38.87
2019-02-28T18:56:10.993Z,38.33
2019-02-28T18:58:51.685Z,36.93
2019-02-28T19:01:24.103Z,30.60
2019-02-28T19:04:01.300Z,37.27
2019-02-28T19:06:32.193Z,33.27
2019-02-28T19:09:02.002Z,45.17
2019-02-28T19:11:37.590Z,37.10
2019-02-28T19:14:13.464Z,41.87
2019-02-28T19:16:45.635Z,48.77
2019-02-28T19:19:15.020Z,37.13
2019-02-28T19:21:48.722Z,38.83
2019-02-28T19:24:24.963Z,35.77
2019-02-28T19:26:59.517Z,51.97
2019-02-28T19:29:41.583Z,38.67
2019-02-28T19:32:37.762Z,39.87
2019-02-28T19:35:09.584Z,47.47
2019-02-28T19:38:06.967Z,49.63
2019-02-28T19:40:41.812Z,42.10
2019-02-28T19:43:37.851Z,40.93
2019-02-28T19:46:37.799Z,34.73
2019-02-28T19:49:23.865Z,44.77
2019-02-28T19:51:58.664Z,46.40
2019-02-28T19:54:32.115Z,34.80
2019-02-28T19:57:14.853Z,43.27
2019-02-28T19:59:49.696Z,47.13
2019-02-28T20:02:21.877Z,50.40
2019-02-28T20:05:17.474Z,43.63
2019-02-28T20:08:01.524Z,48.77
2019-02-28T20:10:49.384Z,52.80
2019-02-28T20:13:35.461Z,39.83
2019-02-28T20:16:05.776Z,47.90
2019-02-28T20:18:36.792Z,41.77
2019-02-28T20:21:23.531Z,41.10
2019-02-28T20:23:57.549Z,42.37
2019-02-28T20:26:26.944Z,45.27
2019-02-28T20:28:57.266Z,39.90
2019-02-28T20:31:38.576Z,35.07
2019-02-28T20:34:12.745Z,51.27
2019-02-28T20:36:42.831Z,31.33
2019-02-28T20:39:13.427Z,40.40
2019-02-28T20:41:47.414Z,34.50
2019-02-28T20:44:16.001Z,34.90
2019-02-28T20:46:44.585Z,34.43
2019-02-28T20:49:13.474Z,30.60
2019-02-28T20:51:42.590Z,38.10
2019-02-28T20:54:14.545Z,37.13
2019-02-28T20:56:43.407Z,33.67
2019-02-28T20:59:12.047Z,33.37
2019-02-28T21:01:40.991Z,33.50
2019-02-28T21:04:10.832Z,40.80
2019-02-28T21:06:39.863Z,38.40
2019-02-28T21:09:15.065Z,40.90
2019-02-28T21:12:02.392Z,30.00
2019-02-28T21:14:31.476Z,40.30
2019-02-28T21:17:00.091Z,36.53
2019-02-28T21:19:28.606Z,38.73
2019-02-28T21:22:02.009Z,41.17
2019-02-28T21:24:30.871Z,36.13
2019-02-28T21:27:07.190Z,40.83
2019-02-28T21:29:38.263Z,37.20
2019-02-28T21:32:07.175Z,41.67
2019-02-28T21:34:49.819Z,32.77
2019-02-28T21:37:19.821Z,35.60
2019-02-28T21:39:51.949Z,40.23
2019-02-28T21:42:23.603Z,40.13
2019-02-28T21:44:52.236Z,31.70
2019-02-28T21:47:23.018Z,38.53
2019-02-28T21:49:51.625Z,38.13
2019-02-28T21:52:20.843Z,33.00
2019-02-28T21:54:49.851Z,29.30
2019-02-28T21:57:18.854Z,26.83
2019-02-28T21:59:53.261Z,33.10
2019-02-28T22:02:22.118Z,35.93
2019-02-28T22:04:50.747Z,47.40
2019-02-28T22:07:19.638Z,40.37
2019-02-28T22:09:50.665Z,44.80
2019-02-28T22:12:18.861Z,41.43
2019-02-28T22:14:47.798Z,40.27
2019-02-28T22:17:18.429Z,40.03
2019-02-28T22:19:47.178Z,40.17
2019-02-28T22:22:15.802Z,42.40
2019-02-28T22:25:16.171Z,37.87
2019-02-28T22:27:40.506Z,45.27
2019-02-28T22:30:28.129Z,40.90
2019-02-28T22:36:07.419Z,48.00
2019-02-28T22:38:36.437Z,45.63
2019-02-28T22:41:10.153Z,48.37
2019-02-28T22:44:03.761Z,37.50
2019-02-28T22:46:40.511Z,38.90
2019-02-28T22:49:09.256Z,33.73
2019-02-28T22:51:37.683Z,34.90
2019-02-28T22:54:06.289Z,38.03
2019-02-28T22:56:46.069Z,52.73
2019-02-28T22:59:14.767Z,48.13
2019-02-28T23:01:43.526Z,61.13
2019-02-28T23:04:37.481Z,74.33
2019-02-28T23:07:09.331Z,86.43
2019-02-28T23:09:38.319Z,84.37
2019-02-28T23:12:17.263Z,107.10
2019-02-28T23:18:13.597Z,102.00
2019-02-28T23:20:42.223Z,117.03
2019-02-28T23:23:16.709Z,106.93
2019-02-28T23:25:45.304Z,126.80
2019-02-28T23:28:15.205Z,143.83
2019-02-28T23:30:54.457Z,167.87
2019-02-28T23:33:23.076Z,167.33
2019-02-28T23:36:01.528Z,179.33
2019-02-28T23:38:30.180Z,183.80
2019-02-28T23:41:03.191Z,210.40
2019-02-28T23:43:35.343Z,198.50
2019-02-28T23:46:04.219Z,226.93
2019-02-28T23:48:34.493Z,247.80
2019-02-28T23:51:03.017Z,251.23
2019-02-28T23:53:34.888Z,226.83
2019-02-28T23:56:03.734Z,215.57
2019-02-28T23:58:34.268Z,213.60
